sensor_id;sensor_type;location;lat;lon;timestamp;P1;durP1;ratioP1;P2;durP2;ratioP2
29452;SDS011;16424;50.956;5.320;2024-03-06T00:01:37;39.83;;;37.17;;
29452;SDS011;16424;50.956;5.320;2024-03-06T00:04:03;39.03;;;36.35;;
29452;SDS011;16424;50.956;5.320;2024-03-06T00:06:29;36.33;;;33.95;;
29452;SDS011;16424;50.956;5.320;2024-03-06T00:08:55;37.50;;;35.10;;
29452;SDS011;16424;50.956;5.320;2024-03-06T00:11:21;37.67;;;35.15;;
29452;SDS011;16424;50.956;5.320;2024-03-06T00:13:47;38.80;;;36.20;;
29452;SDS011;16424;50.956;5.320;2024-03-06T00:16:13;37.10;;;34.83;;
29452;SDS011;16424;50.956;5.320;2024-03-06T00:18:39;39.38;;;36.72;;
29452;SDS011;16424;50.956;5.320;2024-03-06T00:21:05;39.63;;;36.88;;
29452;SDS011;16424;50.956;5.320;2024-03-06T00:23:31;42.22;;;39.42;;
29452;SDS011;16424;50.956;5.320;2024-03-06T00:25:57;39.55;;;36.75;;
29452;SDS011;16424;50.956;5.320;2024-03-06T00:28:23;41.10;;;38.30;;
29452;SDS011;16424;50.956;5.320;2024-03-06T00:30:49;41.35;;;38.78;;
29452;SDS011;16424;50.956;5.320;2024-03-06T00:33:15;43.00;;;40.00;;
29452;SDS011;16424;50.956;5.320;2024-03-06T00:35:40;42.17;;;39.22;;
29452;SDS011;16424;50.956;5.320;2024-03-06T00:38:06;41.95;;;39.05;;
29452;SDS011;16424;50.956;5.320;2024-03-06T00:40:32;41.42;;;38.53;;
29452;SDS011;16424;50.956;5.320;2024-03-06T00:42:58;40.85;;;38.08;;
29452;SDS011;16424;50.956;5.320;2024-03-06T00:45:24;41.17;;;38.25;;
29452;SDS011;16424;50.956;5.320;2024-03-06T00:47:49;44.53;;;41.05;;
29452;SDS011;16424;50.956;5.320;2024-03-06T00:50:15;42.55;;;39.45;;
29452;SDS011;16424;50.956;5.320;2024-03-06T00:52:42;41.17;;;38.20;;
29452;SDS011;16424;50.956;5.320;2024-03-06T00:55:09;36.83;;;34.42;;
29452;SDS011;16424;50.956;5.320;2024-03-06T00:57:35;38.10;;;35.30;;
29452;SDS011;16424;50.956;5.320;2024-03-06T01:00:01;37.28;;;34.67;;
29452;SDS011;16424;50.956;5.320;2024-03-06T01:02:31;37.42;;;35.03;;
29452;SDS011;16424;50.956;5.320;2024-03-06T01:04:56;37.33;;;35.08;;
29452;SDS011;16424;50.956;5.320;2024-03-06T01:07:22;39.17;;;36.50;;
29452;SDS011;16424;50.956;5.320;2024-03-06T01:09:48;37.85;;;35.47;;
29452;SDS011;16424;50.956;5.320;2024-03-06T01:12:13;39.08;;;36.65;;
29452;SDS011;16424;50.956;5.320;2024-03-06T01:14:39;37.20;;;34.55;;
29452;SDS011;16424;50.956;5.320;2024-03-06T01:17:05;37.92;;;35.45;;
29452;SDS011;16424;50.956;5.320;2024-03-06T01:19:31;38.75;;;36.35;;
29452;SDS011;16424;50.956;5.320;2024-03-06T01:21:56;39.05;;;36.13;;
29452;SDS011;16424;50.956;5.320;2024-03-06T01:24:22;35.45;;;32.80;;
29452;SDS011;16424;50.956;5.320;2024-03-06T01:26:48;36.38;;;34.05;;
29452;SDS011;16424;50.956;5.320;2024-03-06T01:29:13;37.38;;;34.75;;
29452;SDS011;16424;50.956;5.320;2024-03-06T01:31:39;35.88;;;33.58;;
29452;SDS011;16424;50.956;5.320;2024-03-06T01:34:04;35.10;;;32.85;;
29452;SDS011;16424;50.956;5.320;2024-03-06T01:36:30;34.78;;;32.47;;
29452;SDS011;16424;50.956;5.320;2024-03-06T01:38:56;33.22;;;30.92;;
29452;SDS011;16424;50.956;5.320;2024-03-06T01:41:21;33.00;;;30.52;;
29452;SDS011;16424;50.956;5.320;2024-03-06T01:43:47;31.77;;;29.70;;
29452;SDS011;16424;50.956;5.320;2024-03-06T01:46:13;32.30;;;30.13;;
29452;SDS011;16424;50.956;5.320;2024-03-06T01:48:38;32.45;;;30.50;;
29452;SDS011;16424;50.956;5.320;2024-03-06T01:51:05;31.05;;;29.02;;
29452;SDS011;16424;50.956;5.320;2024-03-06T01:53:31;30.85;;;28.83;;
29452;SDS011;16424;50.956;5.320;2024-03-06T01:55:58;32.55;;;30.13;;
29452;SDS011;16424;50.956;5.320;2024-03-06T01:58:24;33.17;;;30.92;;
29452;SDS011;16424;50.956;5.320;2024-03-06T02:00:51;34.47;;;32.08;;
29452;SDS011;16424;50.956;5.320;2024-03-06T02:03:17;34.20;;;31.90;;
29452;SDS011;16424;50.956;5.320;2024-03-06T02:05:44;35.38;;;32.92;;
29452;SDS011;16424;50.956;5.320;2024-03-06T02:08:10;34.22;;;32.03;;
29452;SDS011;16424;50.956;5.320;2024-03-06T02:10:35;33.72;;;31.42;;
29452;SDS011;16424;50.956;5.320;2024-03-06T02:13:01;34.78;;;32.58;;
29452;SDS011;16424;50.956;5.320;2024-03-06T02:15:27;34.45;;;32.15;;
29452;SDS011;16424;50.956;5.320;2024-03-06T02:17:53;35.65;;;33.35;;
29452;SDS011;16424;50.956;5.320;2024-03-06T02:20:24;36.40;;;34.10;;
29452;SDS011;16424;50.956;5.320;2024-03-06T02:22:50;37.90;;;35.40;;
29452;SDS011;16424;50.956;5.320;2024-03-06T02:25:16;41.72;;;38.53;;
29452;SDS011;16424;50.956;5.320;2024-03-06T02:27:44;38.55;;;35.70;;
29452;SDS011;16424;50.956;5.320;2024-03-06T02:30:09;35.88;;;33.03;;
29452;SDS011;16424;50.956;5.320;2024-03-06T02:32:36;33.72;;;31.40;;
29452;SDS011;16424;50.956;5.320;2024-03-06T02:35:02;31.60;;;29.58;;
29452;SDS011;16424;50.956;5.320;2024-03-06T02:37:28;31.80;;;29.73;;
29452;SDS011;16424;50.956;5.320;2024-03-06T02:39:54;31.23;;;29.25;;
29452;SDS011;16424;50.956;5.320;2024-03-06T02:42:20;28.50;;;26.30;;
29452;SDS011;16424;50.956;5.320;2024-03-06T02:44:45;27.10;;;25.10;;
29452;SDS011;16424;50.956;5.320;2024-03-06T02:47:11;25.13;;;23.33;;
29452;SDS011;16424;50.956;5.320;2024-03-06T02:49:37;26.13;;;24.23;;
29452;SDS011;16424;50.956;5.320;2024-03-06T02:52:02;24.48;;;22.67;;
29452;SDS011;16424;50.956;5.320;2024-03-06T02:54:28;24.02;;;22.25;;
29452;SDS011;16424;50.956;5.320;2024-03-06T02:56:54;23.50;;;21.90;;
29452;SDS011;16424;50.956;5.320;2024-03-06T02:59:19;25.02;;;23.30;;
29452;SDS011;16424;50.956;5.320;2024-03-06T03:01:45;26.15;;;24.25;;
29452;SDS011;16424;50.956;5.320;2024-03-06T03:04:11;25.38;;;23.30;;
29452;SDS011;16424;50.956;5.320;2024-03-06T03:06:36;25.17;;;23.27;;
29452;SDS011;16424;50.956;5.320;2024-03-06T03:09:02;24.90;;;23.13;;
29452;SDS011;16424;50.956;5.320;2024-03-06T03:11:30;24.50;;;22.52;;
29452;SDS011;16424;50.956;5.320;2024-03-06T03:14:00;24.88;;;22.95;;
29452;SDS011;16424;50.956;5.320;2024-03-06T03:16:26;22.75;;;20.95;;
29452;SDS011;16424;50.956;5.320;2024-03-06T03:18:52;23.92;;;22.15;;
29452;SDS011;16424;50.956;5.320;2024-03-06T03:21:17;22.85;;;21.02;;
29452;SDS011;16424;50.956;5.320;2024-03-06T03:23:43;23.02;;;21.35;;
29452;SDS011;16424;50.956;5.320;2024-03-06T03:26:09;21.38;;;19.77;;
29452;SDS011;16424;50.956;5.320;2024-03-06T03:28:37;23.05;;;21.45;;
29452;SDS011;16424;50.956;5.320;2024-03-06T03:31:06;25.05;;;23.13;;
29452;SDS011;16424;50.956;5.320;2024-03-06T03:33:34;24.65;;;22.85;;
29452;SDS011;16424;50.956;5.320;2024-03-06T03:36:03;25.55;;;23.55;;
29452;SDS011;16424;50.956;5.320;2024-03-06T03:38:30;26.20;;;24.23;;
29452;SDS011;16424;50.956;5.320;2024-03-06T03:40:55;27.60;;;25.60;;
29452;SDS011;16424;50.956;5.320;2024-03-06T03:43:21;26.25;;;24.30;;
29452;SDS011;16424;50.956;5.320;2024-03-06T03:45:47;26.33;;;24.23;;
29452;SDS011;16424;50.956;5.320;2024-03-06T03:48:12;25.33;;;23.50;;
29452;SDS011;16424;50.956;5.320;2024-03-06T03:50:38;23.98;;;22.30;;
29452;SDS011;16424;50.956;5.320;2024-03-06T03:53:03;24.00;;;22.00;;
29452;SDS011;16424;50.956;5.320;2024-03-06T03:55:29;24.48;;;22.60;;
29452;SDS011;16424;50.956;5.320;2024-03-06T03:57:55;24.65;;;22.65;;
29452;SDS011;16424;50.956;5.320;2024-03-06T04:00:21;25.33;;;23.42;;
29452;SDS011;16424;50.956;5.320;2024-03-06T04:02:47;27.58;;;25.38;;
29452;SDS011;16424;50.956;5.320;2024-03-06T04:05:13;27.80;;;25.85;;
29452;SDS011;16424;50.956;5.320;2024-03-06T04:07:39;27.20;;;24.67;;
29452;SDS011;16424;50.956;5.320;2024-03-06T04:10:05;25.88;;;23.77;;
29452;SDS011;16424;50.956;5.320;2024-03-06T04:12:31;25.58;;;23.60;;
29452;SDS011;16424;50.956;5.320;2024-03-06T04:14:57;23.95;;;22.08;;
29452;SDS011;16424;50.956;5.320;2024-03-06T04:17:23;22.85;;;21.10;;
29452;SDS011;16424;50.956;5.320;2024-03-06T04:19:50;23.13;;;21.33;;
29452;SDS011;16424;50.956;5.320;2024-03-06T04:22:20;24.50;;;22.30;;
29452;SDS011;16424;50.956;5.320;2024-03-06T04:24:45;25.58;;;23.55;;
29452;SDS011;16424;50.956;5.320;2024-03-06T04:27:11;24.63;;;22.90;;
29452;SDS011;16424;50.956;5.320;2024-03-06T04:29:37;29.10;;;26.65;;
29452;SDS011;16424;50.956;5.320;2024-03-06T04:32:03;26.27;;;24.55;;
29452;SDS011;16424;50.956;5.320;2024-03-06T04:34:29;26.92;;;24.92;;
29452;SDS011;16424;50.956;5.320;2024-03-06T04:36:54;24.55;;;22.65;;
29452;SDS011;16424;50.956;5.320;2024-03-06T04:39:21;25.02;;;23.23;;
29452;SDS011;16424;50.956;5.320;2024-03-06T04:41:47;23.80;;;22.10;;
29452;SDS011;16424;50.956;5.320;2024-03-06T04:44:13;26.63;;;24.40;;
29452;SDS011;16424;50.956;5.320;2024-03-06T04:46:39;26.13;;;23.77;;
29452;SDS011;16424;50.956;5.320;2024-03-06T04:49:04;26.23;;;24.02;;
29452;SDS011;16424;50.956;5.320;2024-03-06T04:51:30;23.60;;;21.88;;
29452;SDS011;16424;50.956;5.320;2024-03-06T04:53:55;22.33;;;20.77;;
29452;SDS011;16424;50.956;5.320;2024-03-06T04:56:21;21.83;;;20.13;;
29452;SDS011;16424;50.956;5.320;2024-03-06T04:58:47;23.80;;;22.00;;
29452;SDS011;16424;50.956;5.320;2024-03-06T05:01:13;27.35;;;25.15;;
29452;SDS011;16424;50.956;5.320;2024-03-06T05:03:38;26.85;;;24.73;;
29452;SDS011;16424;50.956;5.320;2024-03-06T05:06:05;27.13;;;25.00;;
29452;SDS011;16424;50.956;5.320;2024-03-06T05:08:31;28.25;;;26.20;;
29452;SDS011;16424;50.956;5.320;2024-03-06T05:10:59;31.05;;;28.20;;
29452;SDS011;16424;50.956;5.320;2024-03-06T05:13:26;30.48;;;28.13;;
29452;SDS011;16424;50.956;5.320;2024-03-06T05:15:52;31.48;;;28.88;;
29452;SDS011;16424;50.956;5.320;2024-03-06T05:18:19;31.20;;;28.63;;
29452;SDS011;16424;50.956;5.320;2024-03-06T05:20:45;31.20;;;28.65;;
29452;SDS011;16424;50.956;5.320;2024-03-06T05:23:11;32.45;;;29.75;;
29452;SDS011;16424;50.956;5.320;2024-03-06T05:25:37;30.23;;;28.00;;
29452;SDS011;16424;50.956;5.320;2024-03-06T05:28:04;29.83;;;27.40;;
29452;SDS011;16424;50.956;5.320;2024-03-06T05:30:30;28.77;;;26.48;;
29452;SDS011;16424;50.956;5.320;2024-03-06T05:32:58;25.92;;;23.65;;
29452;SDS011;16424;50.956;5.320;2024-03-06T05:35:24;27.38;;;25.02;;
29452;SDS011;16424;50.956;5.320;2024-03-06T05:37:50;27.23;;;25.02;;
29452;SDS011;16424;50.956;5.320;2024-03-06T05:40:15;28.33;;;25.73;;
29452;SDS011;16424;50.956;5.320;2024-03-06T05:42:41;27.90;;;25.33;;
29452;SDS011;16424;50.956;5.320;2024-03-06T05:45:07;29.50;;;27.00;;
29452;SDS011;16424;50.956;5.320;2024-03-06T05:47:36;27.50;;;25.35;;
29452;SDS011;16424;50.956;5.320;2024-03-06T05:50:03;26.25;;;23.80;;
29452;SDS011;16424;50.956;5.320;2024-03-06T05:52:30;44.30;;;29.15;;
29452;SDS011;16424;50.956;5.320;2024-03-06T05:54:56;29.40;;;26.83;;
29452;SDS011;16424;50.956;5.320;2024-03-06T05:57:22;30.45;;;28.05;;
29452;SDS011;16424;50.956;5.320;2024-03-06T05:59:48;29.27;;;26.83;;
29452;SDS011;16424;50.956;5.320;2024-03-06T06:02:13;29.10;;;26.67;;
29452;SDS011;16424;50.956;5.320;2024-03-06T06:04:41;27.42;;;25.30;;
29452;SDS011;16424;50.956;5.320;2024-03-06T06:07:07;26.95;;;25.00;;
29452;SDS011;16424;50.956;5.320;2024-03-06T06:09:33;28.17;;;25.63;;
29452;SDS011;16424;50.956;5.320;2024-03-06T06:11:58;28.58;;;26.27;;
29452;SDS011;16424;50.956;5.320;2024-03-06T06:14:24;29.10;;;26.73;;
29452;SDS011;16424;50.956;5.320;2024-03-06T06:16:52;29.67;;;27.30;;
29452;SDS011;16424;50.956;5.320;2024-03-06T06:19:18;30.33;;;27.73;;
29452;SDS011;16424;50.956;5.320;2024-03-06T06:21:43;28.98;;;26.58;;
29452;SDS011;16424;50.956;5.320;2024-03-06T06:24:09;31.60;;;28.73;;
29452;SDS011;16424;50.956;5.320;2024-03-06T06:26:35;36.40;;;27.15;;
29452;SDS011;16424;50.956;5.320;2024-03-06T06:29:00;29.83;;;27.30;;
29452;SDS011;16424;50.956;5.320;2024-03-06T06:31:26;35.15;;;32.35;;
29452;SDS011;16424;50.956;5.320;2024-03-06T06:33:52;32.47;;;29.80;;
29452;SDS011;16424;50.956;5.320;2024-03-06T06:36:18;32.58;;;30.05;;
29452;SDS011;16424;50.956;5.320;2024-03-06T06:38:44;32.97;;;30.20;;
29452;SDS011;16424;50.956;5.320;2024-03-06T06:41:11;31.33;;;28.98;;
29452;SDS011;16424;50.956;5.320;2024-03-06T06:43:36;31.98;;;29.48;;
29452;SDS011;16424;50.956;5.320;2024-03-06T06:46:02;29.67;;;27.33;;
29452;SDS011;16424;50.956;5.320;2024-03-06T06:48:30;30.38;;;27.77;;
29452;SDS011;16424;50.956;5.320;2024-03-06T06:50:56;26.92;;;24.42;;
29452;SDS011;16424;50.956;5.320;2024-03-06T06:53:22;29.55;;;27.05;;
29452;SDS011;16424;50.956;5.320;2024-03-06T06:55:48;31.15;;;28.67;;
29452;SDS011;16424;50.956;5.320;2024-03-06T06:58:13;31.77;;;28.75;;
29452;SDS011;16424;50.956;5.320;2024-03-06T07:00:39;31.70;;;29.10;;
29452;SDS011;16424;50.956;5.320;2024-03-06T07:03:05;29.08;;;26.95;;
29452;SDS011;16424;50.956;5.320;2024-03-06T07:05:30;30.88;;;28.00;;
29452;SDS011;16424;50.956;5.320;2024-03-06T07:07:56;30.75;;;28.33;;
29452;SDS011;16424;50.956;5.320;2024-03-06T07:10:21;30.67;;;28.25;;
29452;SDS011;16424;50.956;5.320;2024-03-06T07:12:48;32.63;;;30.05;;
29452;SDS011;16424;50.956;5.320;2024-03-06T07:15:14;40.17;;;37.42;;
29452;SDS011;16424;50.956;5.320;2024-03-06T07:17:39;42.75;;;39.80;;
29452;SDS011;16424;50.956;5.320;2024-03-06T07:20:05;38.63;;;36.00;;
29452;SDS011;16424;50.956;5.320;2024-03-06T07:22:33;35.33;;;32.60;;
29452;SDS011;16424;50.956;5.320;2024-03-06T07:24:59;32.33;;;30.00;;
29452;SDS011;16424;50.956;5.320;2024-03-06T07:27:27;33.05;;;30.30;;
29452;SDS011;16424;50.956;5.320;2024-03-06T07:29:53;27.67;;;25.83;;
29452;SDS011;16424;50.956;5.320;2024-03-06T07:32:19;27.83;;;25.80;;
29452;SDS011;16424;50.956;5.320;2024-03-06T07:34:44;26.95;;;24.98;;
29452;SDS011;16424;50.956;5.320;2024-03-06T07:37:10;20.15;;;18.63;;
29452;SDS011;16424;50.956;5.320;2024-03-06T07:39:36;20.38;;;18.75;;
29452;SDS011;16424;50.956;5.320;2024-03-06T07:42:02;13.65;;;12.48;;
29452;SDS011;16424;50.956;5.320;2024-03-06T07:44:27;13.32;;;9.57;;
29452;SDS011;16424;50.956;5.320;2024-03-06T07:46:53;9.00;;;7.97;;
29452;SDS011;16424;50.956;5.320;2024-03-06T07:49:19;10.18;;;8.73;;
29452;SDS011;16424;50.956;5.320;2024-03-06T07:51:47;11.95;;;8.43;;
29452;SDS011;16424;50.956;5.320;2024-03-06T07:54:12;10.75;;;9.65;;
29452;SDS011;16424;50.956;5.320;2024-03-06T07:56:38;9.20;;;6.22;;
29452;SDS011;16424;50.956;5.320;2024-03-06T07:59:04;11.00;;;6.15;;
29452;SDS011;16424;50.956;5.320;2024-03-06T08:01:33;14.60;;;5.30;;
29452;SDS011;16424;50.956;5.320;2024-03-06T08:03:58;8.77;;;5.07;;
29452;SDS011;16424;50.956;5.320;2024-03-06T08:06:24;10.40;;;5.75;;
29452;SDS011;16424;50.956;5.320;2024-03-06T08:08:51;8.30;;;6.03;;
29452;SDS011;16424;50.956;5.320;2024-03-06T08:11:17;11.32;;;4.45;;
29452;SDS011;16424;50.956;5.320;2024-03-06T08:13:43;17.85;;;4.78;;
29452;SDS011;16424;50.956;5.320;2024-03-06T08:16:08;10.10;;;4.43;;
29452;SDS011;16424;50.956;5.320;2024-03-06T08:18:34;8.80;;;4.10;;
29452;SDS011;16424;50.956;5.320;2024-03-06T08:21:01;9.15;;;4.03;;
29452;SDS011;16424;50.956;5.320;2024-03-06T08:23:31;6.47;;;3.80;;
29452;SDS011;16424;50.956;5.320;2024-03-06T08:25:58;5.30;;;3.90;;
29452;SDS011;16424;50.956;5.320;2024-03-06T08:28:25;6.10;;;3.83;;
29452;SDS011;16424;50.956;5.320;2024-03-06T08:30:50;5.30;;;3.90;;
29452;SDS011;16424;50.956;5.320;2024-03-06T08:33:17;8.80;;;3.88;;
29452;SDS011;16424;50.956;5.320;2024-03-06T08:35:43;7.00;;;3.83;;
29452;SDS011;16424;50.956;5.320;2024-03-06T08:38:08;5.45;;;3.78;;
29452;SDS011;16424;50.956;5.320;2024-03-06T08:40:34;6.97;;;4.05;;
29452;SDS011;16424;50.956;5.320;2024-03-06T08:43:00;11.48;;;4.18;;
29452;SDS011;16424;50.956;5.320;2024-03-06T08:45:26;7.43;;;4.20;;
29452;SDS011;16424;50.956;5.320;2024-03-06T08:47:51;8.85;;;4.30;;
29452;SDS011;16424;50.956;5.320;2024-03-06T08:50:19;12.13;;;4.15;;
29452;SDS011;16424;50.956;5.320;2024-03-06T08:52:45;4.82;;;4.38;;
29452;SDS011;16424;50.956;5.320;2024-03-06T08:55:11;5.75;;;3.78;;
29452;SDS011;16424;50.956;5.320;2024-03-06T08:57:37;7.88;;;4.07;;
29452;SDS011;16424;50.956;5.320;2024-03-06T09:00:05;6.20;;;4.00;;
29452;SDS011;16424;50.956;5.320;2024-03-06T09:02:35;5.22;;;4.22;;
29452;SDS011;16424;50.956;5.320;2024-03-06T09:05:05;7.78;;;4.15;;
29452;SDS011;16424;50.956;5.320;2024-03-06T09:07:35;5.68;;;3.78;;
29452;SDS011;16424;50.956;5.320;2024-03-06T09:10:12;7.35;;;4.88;;
29452;SDS011;16424;50.956;5.320;2024-03-06T09:12:38;6.47;;;4.10;;
29452;SDS011;16424;50.956;5.320;2024-03-06T09:15:04;5.45;;;4.03;;
29452;SDS011;16424;50.956;5.320;2024-03-06T09:17:32;6.55;;;3.90;;
29452;SDS011;16424;50.956;5.320;2024-03-06T09:19:58;9.75;;;4.72;;
29452;SDS011;16424;50.956;5.320;2024-03-06T09:22:24;7.80;;;7.07;;
29452;SDS011;16424;50.956;5.320;2024-03-06T09:24:49;7.15;;;4.28;;
29452;SDS011;16424;50.956;5.320;2024-03-06T09:27:15;6.32;;;4.53;;
29452;SDS011;16424;50.956;5.320;2024-03-06T09:29:42;5.28;;;4.25;;
29452;SDS011;16424;50.956;5.320;2024-03-06T09:32:08;5.18;;;4.65;;
29452;SDS011;16424;50.956;5.320;2024-03-06T09:34:33;8.15;;;5.40;;
29452;SDS011;16424;50.956;5.320;2024-03-06T09:36:59;4.60;;;4.20;;
29452;SDS011;16424;50.956;5.320;2024-03-06T09:39:25;5.32;;;4.10;;
29452;SDS011;16424;50.956;5.320;2024-03-06T09:41:52;7.38;;;5.07;;
29452;SDS011;16424;50.956;5.320;2024-03-06T09:44:22;7.50;;;5.03;;
29452;SDS011;16424;50.956;5.320;2024-03-06T09:46:48;5.80;;;4.80;;
29452;SDS011;16424;50.956;5.320;2024-03-06T09:49:18;6.72;;;5.20;;
29452;SDS011;16424;50.956;5.320;2024-03-06T09:51:44;8.70;;;5.40;;
29452;SDS011;16424;50.956;5.320;2024-03-06T09:54:15;7.57;;;6.45;;
29452;SDS011;16424;50.956;5.320;2024-03-06T09:56:44;10.57;;;6.10;;
29452;SDS011;16424;50.956;5.320;2024-03-06T09:59:10;8.35;;;5.28;;
29452;SDS011;16424;50.956;5.320;2024-03-06T10:01:43;6.80;;;6.20;;
29452;SDS011;16424;50.956;5.320;2024-03-06T10:04:22;9.65;;;7.53;;
29452;SDS011;16424;50.956;5.320;2024-03-06T10:06:55;7.63;;;6.95;;
29452;SDS011;16424;50.956;5.320;2024-03-06T10:09:22;6.30;;;5.70;;
29452;SDS011;16424;50.956;5.320;2024-03-06T10:11:48;6.82;;;6.13;;
29452;SDS011;16424;50.956;5.320;2024-03-06T10:14:14;12.80;;;6.03;;
29452;SDS011;16424;50.956;5.320;2024-03-06T10:19:19;6.63;;;6.05;;
29452;SDS011;16424;50.956;5.320;2024-03-06T10:21:48;11.27;;;5.70;;
29452;SDS011;16424;50.956;5.320;2024-03-06T10:26:52;7.03;;;6.32;;
29452;SDS011;16424;50.956;5.320;2024-03-06T10:29:21;13.30;;;5.97;;
29452;SDS011;16424;50.956;5.320;2024-03-06T10:31:59;8.45;;;5.68;;
29452;SDS011;16424;50.956;5.320;2024-03-06T10:34:25;9.35;;;5.03;;
29452;SDS011;16424;50.956;5.320;2024-03-06T10:39:25;8.05;;;4.93;;
29452;SDS011;16424;50.956;5.320;2024-03-06T10:41:55;11.15;;;4.20;;
29452;SDS011;16424;50.956;5.320;2024-03-06T10:44:22;9.13;;;4.65;;
29452;SDS011;16424;50.956;5.320;2024-03-06T10:46:51;10.65;;;4.53;;
29452;SDS011;16424;50.956;5.320;2024-03-06T10:49:25;7.50;;;4.88;;
29452;SDS011;16424;50.956;5.320;2024-03-06T10:51:53;12.55;;;5.85;;
29452;SDS011;16424;50.956;5.320;2024-03-06T10:54:22;8.02;;;5.78;;
29452;SDS011;16424;50.956;5.320;2024-03-06T10:56:51;9.45;;;5.97;;
29452;SDS011;16424;50.956;5.320;2024-03-06T10:59:18;5.63;;;5.13;;
29452;SDS011;16424;50.956;5.320;2024-03-06T11:01:46;11.50;;;5.65;;
29452;SDS011;16424;50.956;5.320;2024-03-06T11:04:12;8.65;;;5.13;;
29452;SDS011;16424;50.956;5.320;2024-03-06T11:06:40;9.95;;;5.30;;
29452;SDS011;16424;50.956;5.320;2024-03-06T11:09:06;10.10;;;5.22;;
29452;SDS011;16424;50.956;5.320;2024-03-06T11:11:49;8.23;;;5.85;;
29452;SDS011;16424;50.956;5.320;2024-03-06T11:14:17;10.85;;;5.75;;
29452;SDS011;16424;50.956;5.320;2024-03-06T11:16:56;6.40;;;5.47;;
29452;SDS011;16424;50.956;5.320;2024-03-06T11:19:25;11.35;;;5.45;;
29452;SDS011;16424;50.956;5.320;2024-03-06T11:21:51;11.02;;;5.43;;
29452;SDS011;16424;50.956;5.320;2024-03-06T11:24:18;6.13;;;4.57;;
29452;SDS011;16424;50.956;5.320;2024-03-06T11:26:54;5.68;;;5.13;;
29452;SDS011;16424;50.956;5.320;2024-03-06T11:32:36;8.38;;;6.22;;
29452;SDS011;16424;50.956;5.320;2024-03-06T11:35:03;8.20;;;6.03;;
29452;SDS011;16424;50.956;5.320;2024-03-06T11:37:33;7.72;;;5.30;;
29452;SDS011;16424;50.956;5.320;2024-03-06T11:40:00;8.50;;;5.70;;
29452;SDS011;16424;50.956;5.320;2024-03-06T11:42:33;7.30;;;5.50;;
29452;SDS011;16424;50.956;5.320;2024-03-06T11:45:13;7.40;;;5.18;;
29452;SDS011;16424;50.956;5.320;2024-03-06T11:48:01;5.75;;;5.25;;
29452;SDS011;16424;50.956;5.320;2024-03-06T11:50:28;6.50;;;5.85;;
29452;SDS011;16424;50.956;5.320;2024-03-06T11:52:57;9.25;;;6.50;;
29452;SDS011;16424;50.956;5.320;2024-03-06T11:55:23;10.55;;;6.43;;
29452;SDS011;16424;50.956;5.320;2024-03-06T11:57:52;6.45;;;5.85;;
29452;SDS011;16424;50.956;5.320;2024-03-06T12:00:22;9.20;;;7.40;;
29452;SDS011;16424;50.956;5.320;2024-03-06T12:02:49;11.65;;;6.30;;
29452;SDS011;16424;50.956;5.320;2024-03-06T12:05:16;13.13;;;9.27;;
29452;SDS011;16424;50.956;5.320;2024-03-06T12:07:46;6.88;;;6.28;;
29452;SDS011;16424;50.956;5.320;2024-03-06T12:10:13;7.00;;;6.38;;
29452;SDS011;16424;50.956;5.320;2024-03-06T12:12:40;9.40;;;8.68;;
29452;SDS011;16424;50.956;5.320;2024-03-06T12:15:06;8.43;;;7.60;;
29452;SDS011;16424;50.956;5.320;2024-03-06T12:17:43;9.85;;;9.13;;
29452;SDS011;16424;50.956;5.320;2024-03-06T12:20:11;8.52;;;7.93;;
29452;SDS011;16424;50.956;5.320;2024-03-06T12:22:44;7.93;;;7.10;;
29452;SDS011;16424;50.956;5.320;2024-03-06T12:25:10;8.40;;;7.70;;
29452;SDS011;16424;50.956;5.320;2024-03-06T12:27:44;11.07;;;7.88;;
29452;SDS011;16424;50.956;5.320;2024-03-06T12:30:10;10.27;;;9.30;;
29452;SDS011;16424;50.956;5.320;2024-03-06T12:32:38;10.18;;;8.57;;
29452;SDS011;16424;50.956;5.320;2024-03-06T12:35:04;8.57;;;7.78;;
29452;SDS011;16424;50.956;5.320;2024-03-06T12:37:30;10.35;;;9.25;;
29452;SDS011;16424;50.956;5.320;2024-03-06T12:39:57;9.70;;;8.98;;
29452;SDS011;16424;50.956;5.320;2024-03-06T12:42:23;10.35;;;9.52;;
29452;SDS011;16424;50.956;5.320;2024-03-06T12:44:52;11.18;;;10.07;;
29452;SDS011;16424;50.956;5.320;2024-03-06T12:47:18;8.43;;;7.82;;
29452;SDS011;16424;50.956;5.320;2024-03-06T12:49:44;9.45;;;7.93;;
29452;SDS011;16424;50.956;5.320;2024-03-06T12:52:09;8.68;;;7.78;;
29452;SDS011;16424;50.956;5.320;2024-03-06T12:54:35;10.10;;;9.30;;
29452;SDS011;16424;50.956;5.320;2024-03-06T12:57:01;10.98;;;10.00;;
29452;SDS011;16424;50.956;5.320;2024-03-06T12:59:27;11.93;;;11.13;;
29452;SDS011;16424;50.956;5.320;2024-03-06T13:01:53;11.88;;;10.95;;
29452;SDS011;16424;50.956;5.320;2024-03-06T13:04:19;13.27;;;12.38;;
29452;SDS011;16424;50.956;5.320;2024-03-06T13:06:45;14.90;;;13.90;;
29452;SDS011;16424;50.956;5.320;2024-03-06T13:09:10;16.77;;;15.23;;
29452;SDS011;16424;50.956;5.320;2024-03-06T13:11:37;17.63;;;16.63;;
29452;SDS011;16424;50.956;5.320;2024-03-06T13:14:02;18.55;;;17.33;;
29452;SDS011;16424;50.956;5.320;2024-03-06T13:16:28;20.20;;;18.83;;
29452;SDS011;16424;50.956;5.320;2024-03-06T13:18:54;19.63;;;18.42;;
29452;SDS011;16424;50.956;5.320;2024-03-06T13:21:21;18.35;;;17.05;;
29452;SDS011;16424;50.956;5.320;2024-03-06T13:23:48;16.90;;;15.82;;
29452;SDS011;16424;50.956;5.320;2024-03-06T13:26:14;19.33;;;18.13;;
29452;SDS011;16424;50.956;5.320;2024-03-06T13:28:40;18.52;;;17.15;;
29452;SDS011;16424;50.956;5.320;2024-03-06T13:31:06;20.20;;;18.80;;
29452;SDS011;16424;50.956;5.320;2024-03-06T13:33:32;19.95;;;18.55;;
29452;SDS011;16424;50.956;5.320;2024-03-06T13:35:58;21.95;;;20.50;;
29452;SDS011;16424;50.956;5.320;2024-03-06T13:38:23;22.75;;;20.98;;
29452;SDS011;16424;50.956;5.320;2024-03-06T13:40:49;24.98;;;23.58;;
29452;SDS011;16424;50.956;5.320;2024-03-06T13:43:15;23.15;;;21.85;;
29452;SDS011;16424;50.956;5.320;2024-03-06T13:45:49;24.92;;;23.13;;
29452;SDS011;16424;50.956;5.320;2024-03-06T13:48:15;24.35;;;23.05;;
29452;SDS011;16424;50.956;5.320;2024-03-06T13:50:44;24.67;;;23.20;;
29452;SDS011;16424;50.956;5.320;2024-03-06T13:53:10;25.20;;;23.67;;
29452;SDS011;16424;50.956;5.320;2024-03-06T13:55:37;26.88;;;25.10;;
29452;SDS011;16424;50.956;5.320;2024-03-06T13:58:02;25.70;;;24.17;;
29452;SDS011;16424;50.956;5.320;2024-03-06T14:00:29;26.30;;;24.60;;
29452;SDS011;16424;50.956;5.320;2024-03-06T14:02:55;26.98;;;25.38;;
29452;SDS011;16424;50.956;5.320;2024-03-06T14:05:21;27.65;;;26.08;;
29452;SDS011;16424;50.956;5.320;2024-03-06T14:07:50;29.35;;;27.83;;
29452;SDS011;16424;50.956;5.320;2024-03-06T14:10:16;29.77;;;28.00;;
29452;SDS011;16424;50.956;5.320;2024-03-06T14:12:44;27.25;;;25.77;;
29452;SDS011;16424;50.956;5.320;2024-03-06T14:15:10;25.50;;;23.90;;
29452;SDS011;16424;50.956;5.320;2024-03-06T14:17:37;26.48;;;24.88;;
29452;SDS011;16424;50.956;5.320;2024-03-06T14:20:03;28.40;;;26.73;;
29452;SDS011;16424;50.956;5.320;2024-03-06T14:22:29;26.42;;;24.70;;
29452;SDS011;16424;50.956;5.320;2024-03-06T14:24:55;27.30;;;25.60;;
29452;SDS011;16424;50.956;5.320;2024-03-06T14:27:21;26.20;;;24.75;;
29452;SDS011;16424;50.956;5.320;2024-03-06T14:29:47;29.17;;;27.55;;
29452;SDS011;16424;50.956;5.320;2024-03-06T14:32:13;28.80;;;27.20;;
29452;SDS011;16424;50.956;5.320;2024-03-06T14:34:39;28.15;;;26.33;;
29452;SDS011;16424;50.956;5.320;2024-03-06T14:37:05;30.45;;;28.33;;